sensor_id;sensor_type;location;lat;lon;timestamp;pressure;altitude;pressure_sealevel;temperature;humidity
43480;BME280;29067;35.492;-97.520;2022-09-17T00:01:30;97000.87;;;28.26;35.21
43480;BME280;29067;35.492;-97.520;2022-09-17T00:03:59;96996.88;;;29.02;34.26
43480;BME280;29067;35.492;-97.520;2022-09-17T00:06:28;96995.93;;;27.35;36.03
43480;BME280;29067;35.492;-97.520;2022-09-17T00:08:56;96994.33;;;28.46;35.11
43480;BME280;29067;35.492;-97.520;2022-09-17T00:11:28;96996.01;;;27.97;35.62
43480;BME280;29067;35.492;-97.520;2022-09-17T00:13:59;96991.29;;;27.94;35.65
43480;BME280;29067;35.492;-97.520;2022-09-17T00:16:30;96995.51;;;27.40;36.00
43480;BME280;29067;35.492;-97.520;2022-09-17T00:18:59;96997.31;;;27.08;36.29
43480;BME280;29067;35.492;-97.520;2022-09-17T00:21:28;96995.24;;;28.09;35.48
43480;BME280;29067;35.492;-97.520;2022-09-17T00:23:57;96995.87;;;27.82;35.79
43480;BME280;29067;35.492;-97.520;2022-09-17T00:26:26;96996.23;;;27.86;36.42
43480;BME280;29067;35.492;-97.520;2022-09-17T00:28:56;96990.18;;;28.00;35.89
43480;BME280;29067;35.492;-97.520;2022-09-17T00:31:25;96990.51;;;28.02;36.24
43480;BME280;29067;35.492;-97.520;2022-09-17T00:33:53;96989.67;;;28.53;35.49
43480;BME280;29067;35.492;-97.520;2022-09-17T00:36:22;96987.15;;;27.92;36.02
43480;BME280;29067;35.492;-97.520;2022-09-17T00:38:50;96988.89;;;28.21;35.81
43480;BME280;29067;35.492;-97.520;2022-09-17T00:41:18;96993.88;;;28.08;36.50
43480;BME280;29067;35.492;-97.520;2022-09-17T00:43:49;96989.00;;;27.68;37.29
43480;BME280;29067;35.492;-97.520;2022-09-17T00:46:30;96987.32;;;28.84;35.86
43480;BME280;29067;35.492;-97.520;2022-09-17T00:49:02;96983.65;;;27.89;37.04
43480;BME280;29067;35.492;-97.520;2022-09-17T00:51:35;96986.82;;;28.14;36.65
43480;BME280;29067;35.492;-97.520;2022-09-17T00:54:07;96986.04;;;28.72;35.71
43480;BME280;29067;35.492;-97.520;2022-09-17T00:56:38;96987.47;;;28.12;36.60
43480;BME280;29067;35.492;-97.520;2022-09-17T00:59:07;96985.29;;;28.84;35.71
43480;BME280;29067;35.492;-97.520;2022-09-17T01:01:36;96981.74;;;29.19;36.21
43480;BME280;29067;35.492;-97.520;2022-09-17T01:04:04;96983.16;;;28.58;36.38
43480;BME280;29067;35.492;-97.520;2022-09-17T01:06:34;96983.20;;;28.55;36.06
43480;BME280;29067;35.492;-97.520;2022-09-17T01:09:18;96986.08;;;27.53;36.93
43480;BME280;29067;35.492;-97.520;2022-09-17T01:12:09;96987.13;;;27.61;36.83
43480;BME280;29067;35.492;-97.520;2022-09-17T01:14:52;96987.62;;;28.12;37.05
43480;BME280;29067;35.492;-97.520;2022-09-17T01:17:28;96987.30;;;27.76;36.86
43480;BME280;29067;35.492;-97.520;2022-09-17T01:20:49;96990.93;;;26.18;38.39
43480;BME280;29067;35.492;-97.520;2022-09-17T01:24:54;96987.36;;;26.99;38.28
43480;BME280;29067;35.492;-97.520;2022-09-17T01:29:54;96985.27;;;27.55;38.30
43480;BME280;29067;35.492;-97.520;2022-09-17T01:32:33;96988.25;;;28.34;37.23
43480;BME280;29067;35.492;-97.520;2022-09-17T01:35:12;96991.88;;;27.27;38.67
43480;BME280;29067;35.492;-97.520;2022-09-17T01:37:50;96992.98;;;27.81;38.09
43480;BME280;29067;35.492;-97.520;2022-09-17T01:40:25;96996.51;;;28.21;36.93
43480;BME280;29067;35.492;-97.520;2022-09-17T01:42:58;97002.75;;;28.12;37.30
43480;BME280;29067;35.492;-97.520;2022-09-17T01:45:37;97004.81;;;27.24;38.17
43480;BME280;29067;35.492;-97.520;2022-09-17T01:48:10;97010.94;;;25.79;39.66
43480;BME280;29067;35.492;-97.520;2022-09-17T01:50:43;97013.03;;;26.92;38.77
43480;BME280;29067;35.492;-97.520;2022-09-17T01:53:14;97016.97;;;26.02;39.71
43480;BME280;29067;35.492;-97.520;2022-09-17T01:55:45;97013.84;;;25.90;39.91
43480;BME280;29067;35.492;-97.520;2022-09-17T01:58:18;97016.61;;;26.76;39.04
43480;BME280;29067;35.492;-97.520;2022-09-17T02:00:52;97018.86;;;27.14;38.61
43480;BME280;29067;35.492;-97.520;2022-09-17T02:03:26;97023.26;;;27.46;38.25
43480;BME280;29067;35.492;-97.520;2022-09-17T02:05:59;97019.19;;;27.57;37.60
43480;BME280;29067;35.492;-97.520;2022-09-17T02:08:33;97026.59;;;27.24;38.18
43480;BME280;29067;35.492;-97.520;2022-09-17T02:11:07;97030.88;;;25.39;39.67
43480;BME280;29067;35.492;-97.520;2022-09-17T02:13:40;97032.14;;;25.91;39.56
43480;BME280;29067;35.492;-97.520;2022-09-17T02:16:13;97034.51;;;26.44;38.79
43480;BME280;29067;35.492;-97.520;2022-09-17T02:18:48;97041.35;;;25.98;39.23
43480;BME280;29067;35.492;-97.520;2022-09-17T02:21:21;97040.17;;;26.25;38.78
43480;BME280;29067;35.492;-97.520;2022-09-17T02:24:00;97042.85;;;25.79;39.77
43480;BME280;29067;35.492;-97.520;2022-09-17T02:26:32;97040.34;;;26.44;38.58
43480;BME280;29067;35.492;-97.520;2022-09-17T02:29:08;97045.84;;;26.56;38.43
43480;BME280;29067;35.492;-97.520;2022-09-17T02:31:39;97043.79;;;26.77;38.15
43480;BME280;29067;35.492;-97.520;2022-09-17T02:34:08;97042.65;;;26.34;38.97
43480;BME280;29067;35.492;-97.520;2022-09-17T02:36:36;97047.58;;;25.86;39.27
43480;BME280;29067;35.492;-97.520;2022-09-17T02:39:05;97044.36;;;26.58;38.52
43480;BME280;29067;35.492;-97.520;2022-09-17T02:41:44;97049.13;;;25.41;39.50
43480;BME280;29067;35.492;-97.520;2022-09-17T02:44:21;97047.92;;;26.17;38.46
43480;BME280;29067;35.492;-97.520;2022-09-17T02:47:10;97046.83;;;26.61;37.98
43480;BME280;29067;35.492;-97.520;2022-09-17T02:49:54;97052.72;;;25.56;37.71
43480;BME280;29067;35.492;-97.520;2022-09-17T02:52:35;97053.28;;;26.32;37.27
43480;BME280;29067;35.492;-97.520;2022-09-17T02:55:11;97058.08;;;26.53;36.57
43480;BME280;29067;35.492;-97.520;2022-09-17T02:57:49;97053.23;;;27.52;35.80
43480;BME280;29067;35.492;-97.520;2022-09-17T03:00:21;97061.54;;;25.63;36.86
43480;BME280;29067;35.492;-97.520;2022-09-17T03:02:52;97055.89;;;27.10;35.45
43480;BME280;29067;35.492;-97.520;2022-09-17T03:05:23;97061.72;;;25.60;36.70
43480;BME280;29067;35.492;-97.520;2022-09-17T03:07:54;97072.70;;;24.83;37.57
43480;BME280;29067;35.492;-97.520;2022-09-17T03:10:23;97067.99;;;25.49;36.73
43480;BME280;29067;35.492;-97.520;2022-09-17T03:12:53;97071.73;;;25.80;36.78
43480;BME280;29067;35.492;-97.520;2022-09-17T03:15:20;97077.67;;;25.69;36.76
43480;BME280;29067;35.492;-97.520;2022-09-17T03:17:48;97076.66;;;24.99;37.07
43480;BME280;29067;35.492;-97.520;2022-09-17T03:20:15;97074.68;;;25.98;36.81
43480;BME280;29067;35.492;-97.520;2022-09-17T03:22:44;97078.46;;;25.60;37.28
43480;BME280;29067;35.492;-97.520;2022-09-17T03:25:12;97080.44;;;24.96;37.38
43480;BME280;29067;35.492;-97.520;2022-09-17T03:27:40;97079.89;;;26.51;36.51
43480;BME280;29067;35.492;-97.520;2022-09-17T03:30:08;97086.30;;;25.11;37.78
43480;BME280;29067;35.492;-97.520;2022-09-17T03:32:37;97089.14;;;24.35;38.24
43480;BME280;29067;35.492;-97.520;2022-09-17T03:35:05;97087.29;;;24.25;38.99
43480;BME280;29067;35.492;-97.520;2022-09-17T03:37:33;97083.56;;;23.63;39.91
43480;BME280;29067;35.492;-97.520;2022-09-17T03:40:01;97089.47;;;25.21;38.80
43480;BME280;29067;35.492;-97.520;2022-09-17T03:42:29;97084.97;;;24.55;40.02
43480;BME280;29067;35.492;-97.520;2022-09-17T03:44:57;97086.49;;;25.48;38.55
43480;BME280;29067;35.492;-97.520;2022-09-17T03:47:25;97084.36;;;25.64;38.09
43480;BME280;29067;35.492;-97.520;2022-09-17T03:49:53;97086.06;;;25.23;38.00
43480;BME280;29067;35.492;-97.520;2022-09-17T03:52:21;97084.54;;;25.81;37.92
43480;BME280;29067;35.492;-97.520;2022-09-17T03:54:51;97087.18;;;25.74;38.19
43480;BME280;29067;35.492;-97.520;2022-09-17T03:57:19;97093.40;;;25.92;37.35
43480;BME280;29067;35.492;-97.520;2022-09-17T03:59:46;97092.82;;;25.44;38.21
43480;BME280;29067;35.492;-97.520;2022-09-17T04:02:14;97089.47;;;24.70;38.64
43480;BME280;29067;35.492;-97.520;2022-09-17T04:04:42;97093.29;;;24.92;39.11
43480;BME280;29067;35.492;-97.520;2022-09-17T04:07:09;97094.52;;;24.17;39.82
43480;BME280;29067;35.492;-97.520;2022-09-17T04:09:37;97089.67;;;24.55;39.52
43480;BME280;29067;35.492;-97.520;2022-09-17T04:12:05;97095.19;;;25.22;40.05
43480;BME280;29067;35.492;-97.520;2022-09-17T04:14:33;97095.78;;;25.24;38.96
43480;BME280;29067;35.492;-97.520;2022-09-17T04:17:01;97100.09;;;24.76;39.85
43480;BME280;29067;35.492;-97.520;2022-09-17T04:19:29;97096.47;;;23.71;40.47
43480;BME280;29067;35.492;-97.520;2022-09-17T04:21:56;97093.48;;;23.71;40.50
43480;BME280;29067;35.492;-97.520;2022-09-17T04:24:24;97089.30;;;24.27;40.49
43480;BME280;29067;35.492;-97.520;2022-09-17T04:26:51;97093.88;;;25.09;40.14
43480;BME280;29067;35.492;-97.520;2022-09-17T04:29:19;97091.25;;;25.39;40.06
43480;BME280;29067;35.492;-97.520;2022-09-17T04:31:46;97093.43;;;24.69;40.23
43480;BME280;29067;35.492;-97.520;2022-09-17T04:34:14;97088.20;;;24.75;40.89
43480;BME280;29067;35.492;-97.520;2022-09-17T04:36:43;97095.04;;;23.98;41.63
43480;BME280;29067;35.492;-97.520;2022-09-17T04:39:11;97094.54;;;23.79;41.96
43480;BME280;29067;35.492;-97.520;2022-09-17T04:41:39;97097.44;;;24.25;41.71
43480;BME280;29067;35.492;-97.520;2022-09-17T04:44:07;97095.47;;;24.68;41.25
43480;BME280;29067;35.492;-97.520;2022-09-17T04:46:34;97093.16;;;25.04;40.77
43480;BME280;29067;35.492;-97.520;2022-09-17T04:49:02;97093.94;;;25.34;39.96
43480;BME280;29067;35.492;-97.520;2022-09-17T04:51:30;97096.56;;;23.90;42.16
43480;BME280;29067;35.492;-97.520;2022-09-17T04:53:58;97094.84;;;23.93;42.42
43480;BME280;29067;35.492;-97.520;2022-09-17T04:56:25;97092.22;;;23.88;42.39
43480;BME280;29067;35.492;-97.520;2022-09-17T04:58:53;97092.98;;;23.49;43.58
43480;BME280;29067;35.492;-97.520;2022-09-17T05:01:21;97094.53;;;24.20;42.38
43480;BME280;29067;35.492;-97.520;2022-09-17T05:03:49;97096.06;;;24.08;42.08
43480;BME280;29067;35.492;-97.520;2022-09-17T05:06:16;97092.52;;;24.54;42.28
43480;BME280;29067;35.492;-97.520;2022-09-17T05:08:44;97093.26;;;24.04;42.24
43480;BME280;29067;35.492;-97.520;2022-09-17T05:11:12;97101.32;;;23.31;44.59
43480;BME280;29067;35.492;-97.520;2022-09-17T05:13:39;97097.44;;;23.16;44.56
43480;BME280;29067;35.492;-97.520;2022-09-17T05:16:07;97090.70;;;24.56;43.11
43480;BME280;29067;35.492;-97.520;2022-09-17T05:18:35;97092.74;;;24.64;42.73
43480;BME280;29067;35.492;-97.520;2022-09-17T05:21:02;97096.92;;;24.12;43.71
43480;BME280;29067;35.492;-97.520;2022-09-17T05:23:31;97107.01;;;24.98;42.33
43480;BME280;29067;35.492;-97.520;2022-09-17T05:25:58;97106.09;;;25.64;41.52
43480;BME280;29067;35.492;-97.520;2022-09-17T05:28:27;97101.99;;;25.03;43.03
43480;BME280;29067;35.492;-97.520;2022-09-17T05:30:58;97099.03;;;23.52;44.47
43480;BME280;29067;35.492;-97.520;2022-09-17T05:33:26;97102.65;;;23.44;45.50
43480;BME280;29067;35.492;-97.520;2022-09-17T05:35:54;97102.23;;;23.18;46.68
43480;BME280;29067;35.492;-97.520;2022-09-17T05:38:22;97101.00;;;22.98;47.04
43480;BME280;29067;35.492;-97.520;2022-09-17T05:40:50;97100.27;;;22.65;46.93
43480;BME280;29067;35.492;-97.520;2022-09-17T05:43:18;97100.63;;;24.53;44.99
43480;BME280;29067;35.492;-97.520;2022-09-17T05:45:45;97100.47;;;24.01;45.90
43480;BME280;29067;35.492;-97.520;2022-09-17T05:48:14;97096.90;;;21.71;49.87
43480;BME280;29067;35.492;-97.520;2022-09-17T05:50:42;97094.03;;;23.54;47.46
43480;BME280;29067;35.492;-97.520;2022-09-17T05:53:11;97098.75;;;22.71;48.11
43480;BME280;29067;35.492;-97.520;2022-09-17T05:55:39;97100.22;;;22.62;50.53
43480;BME280;29067;35.492;-97.520;2022-09-17T05:58:11;97096.03;;;23.46;47.87
43480;BME280;29067;35.492;-97.520;2022-09-17T06:00:40;97096.03;;;24.10;47.03
43480;BME280;29067;35.492;-97.520;2022-09-17T06:03:10;97088.69;;;22.99;48.89
43480;BME280;29067;35.492;-97.520;2022-09-17T06:05:39;97087.61;;;23.09;48.42
43480;BME280;29067;35.492;-97.520;2022-09-17T06:08:07;97088.79;;;23.08;49.56
43480;BME280;29067;35.492;-97.520;2022-09-17T06:10:36;97086.54;;;23.30;48.63
43480;BME280;29067;35.492;-97.520;2022-09-17T06:13:04;97087.21;;;23.03;49.25
43480;BME280;29067;35.492;-97.520;2022-09-17T06:15:31;97087.67;;;23.31;49.43
43480;BME280;29067;35.492;-97.520;2022-09-17T06:17:59;97086.38;;;23.21;48.88
43480;BME280;29067;35.492;-97.520;2022-09-17T06:20:26;97087.08;;;23.69;48.30
43480;BME280;29067;35.492;-97.520;2022-09-17T06:22:55;97080.88;;;23.65;47.22
43480;BME280;29067;35.492;-97.520;2022-09-17T06:25:23;97082.26;;;24.42;47.30
43480;BME280;29067;35.492;-97.520;2022-09-17T06:27:51;97083.11;;;23.43;47.33
43480;BME280;29067;35.492;-97.520;2022-09-17T06:30:19;97088.12;;;23.64;48.67
43480;BME280;29067;35.492;-97.520;2022-09-17T06:32:47;97085.04;;;23.82;48.36
43480;BME280;29067;35.492;-97.520;2022-09-17T06:35:14;97080.60;;;24.07;47.94
43480;BME280;29067;35.492;-97.520;2022-09-17T06:37:42;97078.20;;;23.07;49.62
43480;BME280;29067;35.492;-97.520;2022-09-17T06:40:10;97077.33;;;22.61;50.53
43480;BME280;29067;35.492;-97.520;2022-09-17T06:42:38;97079.53;;;22.38;51.40
43480;BME280;29067;35.492;-97.520;2022-09-17T06:45:07;97071.65;;;23.61;49.48
43480;BME280;29067;35.492;-97.520;2022-09-17T06:47:34;97079.73;;;24.39;47.71
43480;BME280;29067;35.492;-97.520;2022-09-17T06:50:02;97078.92;;;23.24;49.06
43480;BME280;29067;35.492;-97.520;2022-09-17T06:52:31;97077.64;;;23.43;49.26
43480;BME280;29067;35.492;-97.520;2022-09-17T06:54:58;97074.73;;;23.59;49.09
43480;BME280;29067;35.492;-97.520;2022-09-17T06:57:26;97079.10;;;23.93;48.72
43480;BME280;29067;35.492;-97.520;2022-09-17T06:59:53;97078.98;;;23.54;48.72
43480;BME280;29067;35.492;-97.520;2022-09-17T07:02:21;97082.21;;;22.94;49.71
43480;BME280;29067;35.492;-97.520;2022-09-17T07:04:48;97085.16;;;21.38;54.24
43480;BME280;29067;35.492;-97.520;2022-09-17T07:07:16;97082.56;;;22.90;51.64
43480;BME280;29067;35.492;-97.520;2022-09-17T07:09:43;97082.17;;;22.55;52.44
43480;BME280;29067;35.492;-97.520;2022-09-17T07:12:11;97087.09;;;21.39;55.30
43480;BME280;29067;35.492;-97.520;2022-09-17T07:14:39;97086.15;;;22.33;54.76
43480;BME280;29067;35.492;-97.520;2022-09-17T07:17:06;97085.66;;;22.64;54.11
43480;BME280;29067;35.492;-97.520;2022-09-17T07:19:34;97078.60;;;21.93;54.33
43480;BME280;29067;35.492;-97.520;2022-09-17T07:22:02;97078.03;;;22.62;55.03
43480;BME280;29067;35.492;-97.520;2022-09-17T07:24:30;97075.50;;;21.38;56.79
43480;BME280;29067;35.492;-97.520;2022-09-17T07:26:58;97073.25;;;21.88;56.00
43480;BME280;29067;35.492;-97.520;2022-09-17T07:29:26;97073.94;;;21.92;56.91
43480;BME280;29067;35.492;-97.520;2022-09-17T07:31:54;97069.64;;;22.14;55.59
43480;BME280;29067;35.492;-97.520;2022-09-17T07:34:22;97071.15;;;20.96;59.24
43480;BME280;29067;35.492;-97.520;2022-09-17T07:36:50;97068.87;;;21.85;56.86
43480;BME280;29067;35.492;-97.520;2022-09-17T07:39:18;97076.66;;;21.20;58.77
43480;BME280;29067;35.492;-97.520;2022-09-17T07:41:46;97074.70;;;20.87;57.94
43480;BME280;29067;35.492;-97.520;2022-09-17T07:44:14;97076.61;;;22.17;55.46
43480;BME280;29067;35.492;-97.520;2022-09-17T07:46:42;97075.12;;;21.38;55.53
43480;BME280;29067;35.492;-97.520;2022-09-17T07:49:11;97077.31;;;21.33;56.42
43480;BME280;29067;35.492;-97.520;2022-09-17T07:51:38;97071.49;;;21.80;55.74
43480;BME280;29067;35.492;-97.520;2022-09-17T07:54:06;97077.42;;;20.39;60.05
43480;BME280;29067;35.492;-97.520;2022-09-17T07:56:34;97071.25;;;21.29;58.05
43480;BME280;29067;35.492;-97.520;2022-09-17T07:59:02;97066.33;;;22.39;54.76
43480;BME280;29067;35.492;-97.520;2022-09-17T08:01:32;97068.07;;;22.23;55.26
43480;BME280;29067;35.492;-97.520;2022-09-17T08:04:00;97067.88;;;21.14;57.87
43480;BME280;29067;35.492;-97.520;2022-09-17T08:06:28;97066.58;;;21.51;57.44
43480;BME280;29067;35.492;-97.520;2022-09-17T08:08:58;97068.78;;;22.67;54.85
43480;BME280;29067;35.492;-97.520;2022-09-17T08:11:27;97070.00;;;21.84;56.59
43480;BME280;29067;35.492;-97.520;2022-09-17T08:13:56;97066.49;;;22.03;56.01
43480;BME280;29067;35.492;-97.520;2022-09-17T08:16:25;97074.24;;;21.37;59.19
43480;BME280;29067;35.492;-97.520;2022-09-17T08:18:55;97076.35;;;21.36;57.98
43480;BME280;29067;35.492;-97.520;2022-09-17T08:21:23;97073.05;;;21.45;59.75
43480;BME280;29067;35.492;-97.520;2022-09-17T08:23:51;97078.80;;;20.85;60.99
43480;BME280;29067;35.492;-97.520;2022-09-17T08:26:21;97077.47;;;21.25;60.68
43480;BME280;29067;35.492;-97.520;2022-09-17T08:28:50;97068.36;;;22.53;56.30
43480;BME280;29067;35.492;-97.520;2022-09-17T08:31:19;97071.79;;;22.78;55.37
43480;BME280;29067;35.492;-97.520;2022-09-17T08:33:47;97067.07;;;22.17;57.25
43480;BME280;29067;35.492;-97.520;2022-09-17T08:36:16;97079.88;;;21.20;61.04
43480;BME280;29067;35.492;-97.520;2022-09-17T08:38:45;97072.91;;;21.99;57.79
43480;BME280;29067;35.492;-97.520;2022-09-17T08:41:22;97071.94;;;21.14;60.27
43480;BME280;29067;35.492;-97.520;2022-09-17T08:44:04;97076.81;;;20.37;62.53
43480;BME280;29067;35.492;-97.520;2022-09-17T08:46:41;97070.66;;;21.34;60.23
43480;BME280;29067;35.492;-97.520;2022-09-17T08:49:18;97070.70;;;21.42;59.67
43480;BME280;29067;35.492;-97.520;2022-09-17T08:54:12;97077.18;;;24.05;56.22
43480;BME280;29067;35.492;-97.520;2022-09-17T08:56:44;97075.19;;;22.65;56.16
43480;BME280;29067;35.492;-97.520;2022-09-17T08:59:20;97076.60;;;21.91;58.18
43480;BME280;29067;35.492;-97.520;2022-09-17T09:01:57;97074.10;;;21.97;59.40
43480;BME280;29067;35.492;-97.520;2022-09-17T09:04:42;97076.82;;;21.70;60.35
43480;BME280;29067;35.492;-97.520;2022-09-17T09:07:22;97076.57;;;20.94;61.44
43480;BME280;29067;35.492;-97.520;2022-09-17T09:09:55;97072.93;;;22.27;58.30
43480;BME280;29067;35.492;-97.520;2022-09-17T09:12:30;97074.88;;;22.03;59.60
43480;BME280;29067;35.492;-97.520;2022-09-17T09:15:03;97070.29;;;22.05;60.19
43480;BME280;29067;35.492;-97.520;2022-09-17T09:17:40;97075.35;;;22.64;58.69
43480;BME280;29067;35.492;-97.520;2022-09-17T09:20:16;97078.22;;;21.17;62.88
43480;BME280;29067;35.492;-97.520;2022-09-17T09:22:47;97077.03;;;21.80;61.66
43480;BME280;29067;35.492;-97.520;2022-09-17T09:25:20;97075.73;;;22.15;59.72
43480;BME280;29067;35.492;-97.520;2022-09-17T09:28:09;97076.27;;;21.60;62.59
43480;BME280;29067;35.492;-97.520;2022-09-17T09:31:00;97071.48;;;21.85;60.69
43480;BME280;29067;35.492;-97.520;2022-09-17T09:33:36;97080.09;;;22.88;59.05
43480;BME280;29067;35.492;-97.520;2022-09-17T09:36:07;97074.45;;;21.58;62.35
43480;BME280;29067;35.492;-97.520;2022-09-17T09:38:41;97078.10;;;22.21;61.35
43480;BME280;29067;35.492;-97.520;2022-09-17T09:41:11;97078.69;;;21.65;62.34
43480;BME280;29067;35.492;-97.520;2022-09-17T09:43:44;97077.97;;;22.78;59.90
43480;BME280;29067;35.492;-97.520;2022-09-17T09:46:30;97078.74;;;22.45;59.41
43480;BME280;29067;35.492;-97.520;2022-09-17T09:49:11;97079.35;;;22.26;60.35
43480;BME280;29067;35.492;-97.520;2022-09-17T09:51:53;97081.15;;;21.41;63.12
43480;BME280;29067;35.492;-97.520;2022-09-17T09:54:35;97081.79;;;21.65;62.60
43480;BME280;29067;35.492;-97.520;2022-09-17T09:57:11;97079.35;;;21.59;63.63
43480;BME280;29067;35.492;-97.520;2022-09-17T09:59:39;97080.68;;;22.38;61.60
43480;BME280;29067;35.492;-97.520;2022-09-17T10:02:07;97077.81;;;21.71;63.31
43480;BME280;29067;35.492;-97.520;2022-09-17T10:04:35;97083.66;;;20.72;70.24
43480;BME280;29067;35.492;-97.520;2022-09-17T10:07:05;97085.88;;;21.45;67.86
43480;BME280;29067;35.492;-97.520;2022-09-17T10:09:35;97075.04;;;22.18;64.43
43480;BME280;29067;35.492;-97.520;2022-09-17T10:12:14;97071.02;;;21.79;64.24
43480;BME280;29067;35.492;-97.520;2022-09-17T10:14:44;97081.24;;;21.44;67.93
43480;BME280;29067;35.492;-97.520;2022-09-17T10:17:20;97089.58;;;20.07;73.33
43480;BME280;29067;35.492;-97.520;2022-09-17T10:20:21;97086.22;;;20.28;69.82
43480;BME280;29067;35.492;-97.520;2022-09-17T10:22:49;97076.16;;;21.23;67.10
43480;BME280;29067;35.492;-97.520;2022-09-17T10:25:26;97074.49;;;21.42;66.33
43480;BME280;29067;35.492;-97.520;2022-09-17T10:27:54;97068.64;;;20.99;68.06
43480;BME280;29067;35.492;-97.520;2022-09-17T10:30:22;97064.04;;;21.83;65.31
43480;BME280;29067;35.492;-97.520;2022-09-17T10:33:16;97065.99;;;21.99;65.06
43480;BME280;29067;35.492;-97.520;2022-09-17T10:35:55;97065.74;;;21.61;66.78
43480;BME280;29067;35.492;-97.520;2022-09-17T10:38:34;97068.59;;;20.60;70.12
43480;BME280;29067;35.492;-97.520;2022-09-17T10:41:11;97068.38;;;21.41;68.17
43480;BME280;29067;35.492;-97.520;2022-09-17T10:43:39;97075.68;;;21.03;69.42
43480;BME280;29067;35.492;-97.520;2022-09-17T10:46:10;97073.09;;;22.24;66.86
43480;BME280;29067;35.492;-97.520;2022-09-17T10:48:43;97069.55;;;22.01;65.16
43480;BME280;29067;35.492;-97.520;2022-09-17T10:51:20;97079.03;;;20.65;71.13
43480;BME280;29067;35.492;-97.520;2022-09-17T10:54:32;97080.88;;;20.68;71.58
43480;BME280;29067;35.492;-97.520;2022-09-17T10:57:07;97074.43;;;22.00;67.22
43480;BME280;29067;35.492;-97.520;2022-09-17T10:59:46;97082.29;;;20.45;72.28
43480;BME280;29067;35.492;-97.520;2022-09-17T11:03:27;97082.32;;;20.61;72.84
43480;BME280;29067;35.492;-97.520;2022-09-17T11:06:23;97074.02;;;20.99;71.81
43480;BME280;29067;35.492;-97.520;2022-09-17T11:09:01;97078.39;;;21.19;72.70
43480;BME280;29067;35.492;-97.520;2022-09-17T11:11:41;97071.03;;;20.87;72.14
43480;BME280;29067;35.492;-97.520;2022-09-17T11:14:24;97066.08;;;20.93;72.20
43480;BME280;29067;35.492;-97.520;2022-09-17T11:17:07;97071.92;;;20.12;74.92
43480;BME280;29067;35.492;-97.520;2022-09-17T11:19:47;97064.87;;;20.16;75.67
43480;BME280;29067;35.492;-97.520;2022-09-17T11:22:25;97062.22;;;19.97;77.61
43480;BME280;29067;35.492;-97.520;2022-09-17T11:25:07;97056.15;;;22.63;68.62
43480;BME280;29067;35.492;-97.520;2022-09-17T11:27:53;97065.76;;;19.65;77.95
43480;BME280;29067;35.492;-97.520;2022-09-17T11:30:30;97065.84;;;20.99;74.37
43480;BME280;29067;35.492;-97.520;2022-09-17T11:33:18;97064.86;;;21.37;71.66
43480;BME280;29067;35.492;-97.520;2022-09-17T11:35:52;97058.82;;;21.59;70.72
43480;BME280;29067;35.492;-97.520;2022-09-17T11:38:25;97067.92;;;19.89;77.29
43480;BME280;29067;35.492;-97.520;2022-09-17T11:41:01;97063.62;;;21.09;74.97
43480;BME280;29067;35.492;-97.520;2022-09-17T11:43:32;97065.89;;;20.23;77.62
43480;BME280;29067;35.492;-97.520;2022-09-17T11:46:03;97072.87;;;21.32;74.70
43480;BME280;29067;35.492;-97.520;2022-09-17T11:48:41;97068.48;;;21.48;71.80
43480;BME280;29067;35.492;-97.520;2022-09-17T11:51:20;97068.10;;;21.96;69.61
43480;BME280;29067;35.492;-97.520;2022-09-17T11:53:53;97076.46;;;20.00;79.35
43480;BME280;29067;35.492;-97.520;2022-09-17T11:56:26;97076.83;;;20.54;78.96
43480;BME280;29067;35.492;-97.520;2022-09-17T11:58:59;97075.74;;;20.69;78.57
43480;BME280;29067;35.492;-97.520;2022-09-17T12:01:33;97078.67;;;19.84;83.11
43480;BME280;29067;35.492;-97.520;2022-09-17T12:04:21;97072.01;;;20.64;75.74
43480;BME280;29067;35.492;-97.520;2022-09-17T12:07:00;97075.98;;;19.48;84.35
43480;BME280;29067;35.492;-97.520;2022-09-17T12:09:32;97078.00;;;20.83;79.19
43480;BME280;29067;35.492;-97.520;2022-09-17T12:12:07;97078.44;;;20.83;80.30
43480;BME280;29067;35.492;-97.520;2022-09-17T12:14:45;97075.95;;;20.62;79.19
43480;BME280;29067;35.492;-97.520;2022-09-17T12:17:20;97074.56;;;19.77;86.55
43480;BME280;29067;35.492;-97.520;2022-09-17T12:19:52;97080.49;;;19.69;85.78
43480;BME280;29067;35.492;-97.520;2022-09-17T12:22:24;97077.12;;;20.49;82.26
43480;BME280;29067;35.492;-97.520;2022-09-17T12:24:54;97084.93;;;20.49;85.48
43480;BME280;29067;35.492;-97.520;2022-09-17T12:27:33;97085.42;;;20.20;85.55
43480;BME280;29067;35.492;-97.520;2022-09-17T12:30:09;97081.74;;;21.12;78.70
43480;BME280;29067;35.492;-97.520;2022-09-17T12:32:53;97090.91;;;21.25;78.00
43480;BME280;29067;35.492;-97.520;2022-09-17T12:35:38;97088.79;;;20.25;80.35
43480;BME280;29067;35.492;-97.520;2022-09-17T12:38:25;97091.60;;;20.37;84.61
43480;BME280;29067;35.492;-97.520;2022-09-17T12:41:04;97089.49;;;21.14;80.73
43480;BME280;29067;35.492;-97.520;2022-09-17T12:43:45;97084.24;;;20.33;81.35
43480;BME280;29067;35.492;-97.520;2022-09-17T12:46:32;97086.53;;;20.97;81.81
43480;BME280;29067;35.492;-97.520;2022-09-17T12:49:35;97087.94;;;19.85;87.65
43480;BME280;29067;35.492;-97.520;2022-09-17T12:52:15;97096.79;;;20.21;87.63
43480;BME280;29067;35.492;-97.520;2022-09-17T12:55:01;97097.90;;;19.54;90.60
43480;BME280;29067;35.492;-97.520;2022-09-17T12:57:40;97104.73;;;20.82;85.20
43480;BME280;29067;35.492;-97.520;2022-09-17T13:00:13;97105.22;;;20.59;85.72
43480;BME280;29067;35.492;-97.520;2022-09-17T13:02:45;97107.28;;;20.70;86.32
43480;BME280;29067;35.492;-97.520;2022-09-17T13:05:33;97113.86;;;20.79;88.04
43480;BME280;29067;35.492;-97.520;2022-09-17T13:08:30;97119.69;;;19.94;88.37
43480;BME280;29067;35.492;-97.520;2022-09-17T13:12:07;97116.05;;;20.22;88.63
43480;BME280;29067;35.492;-97.520;2022-09-17T13:14:56;97123.86;;;20.69;84.69
43480;BME280;29067;35.492;-97.520;2022-09-17T13:17:31;97126.24;;;20.25;87.49